createdAt,value
2023-11-07T00:00:24.542Z,3.83
2023-11-07T00:02:55.206Z,1.20
2023-11-07T00:05:23.636Z,1.00
2023-11-07T00:07:51.937Z,1.00
2023-11-07T00:10:20.082Z,1.20
2023-11-07T00:12:50.590Z,1.23
2023-11-07T00:15:20.082Z,0.83
2023-11-07T00:17:48.346Z,0.83
2023-11-07T00:20:18.273Z,1.00
2023-11-07T00:22:46.447Z,1.30
2023-11-07T00:25:14.504Z,1.23
2023-11-07T00:27:42.738Z,0.80
2023-11-07T00:30:11.528Z,1.00
2023-11-07T00:32:40.868Z,0.90
2023-11-07T00:35:09.756Z,1.00
2023-11-07T00:37:40.785Z,1.00
2023-11-07T00:40:10.783Z,0.87
2023-11-07T00:42:37.831Z,0.80
2023-11-07T00:45:06.823Z,0.90
2023-11-07T00:47:34.998Z,1.03
2023-11-07T00:50:03.345Z,0.90
2023-11-07T00:52:31.443Z,1.07
2023-11-07T00:55:01.260Z,0.80
2023-11-07T00:57:29.400Z,1.77
2023-11-07T00:59:57.517Z,1.47
2023-11-07T01:02:25.857Z,0.83
2023-11-07T01:04:54.679Z,0.80
2023-11-07T01:07:22.967Z,1.10
2023-11-07T01:09:52.292Z,0.77
2023-11-07T01:12:21.914Z,0.83
2023-11-07T01:14:50.013Z,1.50
2023-11-07T01:17:18.315Z,1.33
2023-11-07T01:19:46.387Z,0.97
2023-11-07T01:22:17.629Z,0.87
2023-11-07T01:24:45.949Z,1.37
2023-11-07T01:27:14.342Z,0.93
2023-11-07T01:29:44.215Z,1.53
2023-11-07T01:32:12.343Z,0.90
2023-11-07T01:34:40.405Z,1.00
2023-11-07T01:37:08.464Z,1.30
2023-11-07T01:39:37.018Z,1.30
2023-11-07T01:42:05.939Z,1.60
2023-11-07T01:44:34.014Z,1.43
2023-11-07T01:47:04.244Z,1.73
2023-11-07T01:49:32.620Z,1.20
2023-11-07T01:52:01.835Z,1.40
2023-11-07T01:54:30.145Z,1.10
2023-11-07T01:56:58.292Z,1.00
2023-11-07T01:59:30.533Z,0.63
2023-11-07T02:02:02.144Z,1.40
2023-11-07T02:04:31.896Z,1.17
2023-11-07T02:06:59.908Z,1.13
2023-11-07T02:09:28.159Z,1.50
2023-11-07T02:11:56.232Z,0.80
2023-11-07T02:14:31.987Z,1.00
2023-11-07T02:17:01.308Z,1.47
2023-11-07T02:19:29.507Z,1.00
2023-11-07T02:22:01.798Z,1.20
2023-11-07T02:24:32.006Z,1.00
2023-11-07T02:27:00.606Z,1.20
2023-11-07T02:29:29.425Z,0.90
2023-11-07T02:31:57.793Z,0.70
2023-11-07T02:34:25.949Z,1.20
2023-11-07T02:36:54.557Z,0.83
2023-11-07T02:39:22.836Z,0.90
2023-11-07T02:41:52.583Z,0.97
2023-11-07T02:44:21.955Z,0.80
2023-11-07T02:46:50.722Z,1.23
2023-11-07T02:49:18.777Z,1.10
2023-11-07T02:51:47.298Z,0.80
2023-11-07T02:54:15.386Z,1.07
2023-11-07T02:56:43.716Z,0.80
2023-11-07T02:59:13.198Z,1.10
2023-11-07T03:01:41.498Z,0.90
2023-11-07T03:04:15.808Z,0.83
2023-11-07T03:06:45.110Z,0.90
2023-11-07T03:09:13.346Z,0.90
2023-11-07T03:11:41.378Z,0.90
2023-11-07T03:14:09.782Z,0.80
2023-11-07T03:16:39.369Z,1.50
2023-11-07T03:19:09.610Z,1.07
2023-11-07T03:21:38.179Z,1.80
2023-11-07T03:24:09.203Z,1.17
2023-11-07T03:26:37.490Z,0.90
2023-11-07T03:29:05.702Z,1.30
2023-11-07T03:31:33.727Z,1.10
2023-11-07T03:34:03.333Z,0.90
2023-11-07T03:36:31.415Z,0.97
2023-11-07T03:38:59.616Z,1.03
2023-11-07T03:41:27.848Z,0.93
2023-11-07T03:43:56.052Z,1.30
2023-11-07T03:46:24.754Z,1.10
2023-11-07T03:48:53.521Z,1.00
2023-11-07T03:51:23.069Z,1.30
2023-11-07T03:53:51.316Z,0.93
2023-11-07T03:56:21.048Z,1.10
2023-11-07T03:58:49.311Z,1.10
2023-11-07T04:01:17.394Z,1.10
2023-11-07T04:03:45.576Z,1.20
2023-11-07T04:06:13.776Z,1.00
2023-11-07T04:08:43.566Z,0.90
2023-11-07T04:11:11.868Z,0.87
2023-11-07T04:13:39.984Z,1.00
2023-11-07T04:16:09.461Z,0.90
2023-11-07T04:18:37.512Z,0.90
2023-11-07T04:21:06.228Z,1.03
2023-11-07T04:23:34.771Z,1.20
2023-11-07T04:26:04.817Z,0.90
2023-11-07T04:28:33.514Z,1.10
2023-11-07T04:31:01.631Z,1.17
2023-11-07T04:33:29.729Z,0.90
2023-11-07T04:35:58.269Z,1.10
2023-11-07T04:38:27.275Z,1.00
2023-11-07T04:40:55.339Z,1.00
2023-11-07T04:43:26.480Z,1.00
2023-11-07T04:45:54.839Z,0.93
2023-11-07T04:48:24.049Z,1.80
2023-11-07T04:50:52.947Z,1.47
2023-11-07T04:53:21.144Z,0.97
2023-11-07T04:55:49.719Z,1.00
2023-11-07T04:58:17.828Z,1.27
2023-11-07T05:00:47.529Z,0.93
2023-11-07T05:03:15.710Z,1.17
2023-11-07T05:05:44.501Z,1.10
2023-11-07T05:08:12.960Z,1.03
2023-11-07T05:10:41.349Z,1.13
2023-11-07T05:13:09.438Z,1.13
2023-11-07T05:15:37.970Z,1.00
2023-11-07T05:18:07.482Z,1.10
2023-11-07T05:20:35.598Z,0.90
2023-11-07T05:23:03.666Z,3.93
2023-11-07T05:25:34.039Z,2.50
2023-11-07T05:28:02.551Z,7.50
2023-11-07T05:30:31.126Z,2.67
2023-11-07T05:32:59.338Z,1.93
2023-11-07T05:35:28.951Z,1.00
2023-11-07T05:37:57.210Z,1.90
2023-11-07T05:40:25.743Z,1.60
2023-11-07T05:47:01.376Z,1.17
2023-11-07T05:57:40.477Z,1.53
2023-11-07T06:00:12.108Z,1.90
2023-11-07T06:02:41.037Z,1.83
2023-11-07T06:05:10.460Z,1.27
2023-11-07T06:07:38.770Z,1.17
2023-11-07T06:10:08.982Z,1.00
2023-11-07T06:12:37.109Z,1.20
2023-11-07T06:15:09.413Z,0.97
2023-11-07T06:17:37.809Z,0.93
2023-11-07T06:20:07.041Z,1.23
2023-11-07T06:22:35.166Z,0.73
2023-11-07T06:25:03.197Z,1.30
2023-11-07T06:27:31.826Z,1.03
2023-11-07T06:30:00.182Z,0.90
2023-11-07T06:32:30.229Z,0.70
2023-11-07T06:34:58.945Z,1.20
2023-11-07T06:37:28.088Z,1.03
2023-11-07T06:39:56.355Z,1.57
2023-11-07T06:42:24.387Z,1.07
2023-11-07T06:44:52.850Z,1.57
2023-11-07T06:47:22.859Z,1.77
2023-11-07T06:49:52.901Z,1.30
2023-11-07T06:52:21.302Z,0.87
2023-11-07T06:54:49.844Z,1.77
2023-11-07T06:57:17.910Z,1.30
2023-11-07T06:59:45.884Z,1.00
2023-11-07T07:02:13.912Z,1.17
2023-11-07T07:04:42.044Z,0.90
2023-11-07T07:07:13.385Z,1.10
2023-11-07T07:09:42.560Z,1.10
2023-11-07T07:12:10.944Z,1.10
2023-11-07T07:14:39.259Z,1.00
2023-11-07T07:17:08.649Z,1.30
2023-11-07T07:19:39.060Z,1.00
2023-11-07T07:22:07.841Z,1.67
2023-11-07T07:24:37.362Z,1.60
2023-11-07T07:27:05.763Z,1.00
2023-11-07T07:29:33.782Z,1.00
2023-11-07T07:32:04.379Z,1.00
2023-11-07T07:34:33.353Z,1.13
2023-11-07T07:37:01.544Z,0.90
2023-11-07T07:39:34.983Z,1.10
2023-11-07T07:42:10.666Z,0.97
2023-11-07T07:44:39.231Z,1.27
2023-11-07T07:47:08.675Z,1.40
2023-11-07T07:49:37.706Z,1.00
2023-11-07T07:52:10.117Z,0.93
2023-11-07T07:55:00.541Z,0.90
2023-11-07T07:57:28.394Z,1.20
2023-11-07T07:59:57.310Z,0.87
2023-11-07T08:02:25.401Z,1.30
2023-11-07T08:04:53.506Z,1.00
2023-11-07T08:07:21.459Z,1.23
2023-11-07T08:09:51.691Z,1.10
2023-11-07T08:12:21.268Z,1.30
2023-11-07T08:14:51.463Z,1.10
2023-11-07T08:17:19.641Z,0.97
2023-11-07T08:19:48.374Z,1.10
2023-11-07T08:22:18.015Z,1.07
2023-11-07T08:24:47.704Z,1.07
2023-11-07T08:27:15.766Z,1.10
2023-11-07T08:29:44.322Z,0.70
2023-11-07T08:32:14.035Z,0.83
2023-11-07T08:34:41.636Z,1.27
2023-11-07T08:37:12.207Z,0.80
2023-11-07T08:39:42.371Z,0.90
2023-11-07T08:42:12.139Z,1.00
2023-11-07T08:44:41.382Z,0.70
2023-11-07T08:47:09.490Z,1.07
2023-11-07T08:49:39.891Z,0.70
2023-11-07T08:52:07.953Z,0.77
2023-11-07T08:54:38.328Z,0.97
2023-11-07T08:57:06.813Z,0.90
2023-11-07T08:59:37.402Z,1.30
2023-11-07T09:02:06.240Z,0.93
2023-11-07T09:04:34.591Z,0.83
2023-11-07T09:07:04.874Z,1.60
2023-11-07T09:09:32.947Z,1.20
2023-11-07T09:12:01.351Z,1.23
2023-11-07T09:14:29.438Z,1.00
2023-11-07T09:16:57.493Z,1.50
2023-11-07T09:19:26.378Z,1.20
2023-11-07T09:21:54.765Z,1.10
2023-11-07T09:24:24.839Z,1.10
2023-11-07T09:26:52.927Z,1.30
2023-11-07T09:29:21.149Z,1.30
2023-11-07T09:31:49.834Z,1.03
2023-11-07T09:34:18.338Z,1.07
2023-11-07T09:36:46.820Z,1.20
2023-11-07T09:39:14.940Z,1.17
2023-11-07T09:41:46.402Z,1.10
2023-11-07T09:44:14.941Z,1.10
2023-11-07T09:46:43.293Z,1.27
2023-11-07T09:49:13.751Z,1.00
2023-11-07T09:51:42.215Z,1.20
2023-11-07T09:54:12.702Z,1.20
2023-11-07T09:56:41.612Z,2.17
2023-11-07T09:59:22.687Z,1.40
2023-11-07T10:01:51.418Z,2.00
2023-11-07T10:04:22.008Z,2.10
2023-11-07T10:06:50.581Z,2.00
2023-11-07T10:09:18.773Z,1.83
2023-11-07T10:11:50.418Z,2.03
2023-11-07T10:14:21.456Z,2.20
2023-11-07T10:16:52.435Z,2.00
2023-11-07T10:19:25.039Z,2.10
2023-11-07T10:21:54.095Z,1.67
2023-11-07T10:24:22.483Z,1.97
2023-11-07T10:26:54.921Z,1.10
2023-11-07T10:29:38.057Z,1.83
2023-11-07T10:32:11.074Z,1.40
2023-11-07T10:34:40.340Z,1.60
2023-11-07T10:37:08.633Z,1.30
2023-11-07T10:39:37.267Z,1.70
2023-11-07T10:42:19.169Z,1.50
2023-11-07T10:44:50.071Z,1.50
2023-11-07T10:47:21.064Z,1.80
2023-11-07T10:49:52.409Z,1.87
2023-11-07T10:52:20.408Z,1.80
2023-11-07T10:54:48.465Z,1.73
2023-11-07T10:57:24.132Z,1.47
2023-11-07T11:00:06.742Z,1.70
2023-11-07T11:02:35.821Z,1.50
2023-11-07T11:05:05.946Z,1.60
2023-11-07T11:07:35.527Z,1.50
2023-11-07T11:10:06.745Z,1.53
2023-11-07T11:12:37.940Z,1.47
2023-11-07T11:15:10.756Z,1.53
2023-11-07T11:17:45.090Z,2.00
2023-11-07T11:20:24.138Z,1.00
2023-11-07T11:23:01.481Z,1.23
2023-11-07T11:25:40.261Z,1.00
2023-11-07T11:28:08.330Z,1.43
2023-11-07T11:30:41.748Z,1.40
2023-11-07T11:33:11.630Z,1.60
2023-11-07T11:35:42.205Z,1.10
2023-11-07T11:38:14.026Z,0.97
2023-11-07T11:41:04.084Z,1.37
2023-11-07T11:43:33.512Z,1.60
2023-11-07T11:46:39.799Z,1.17
2023-11-07T11:49:13.524Z,1.27
2023-11-07T11:51:43.216Z,1.87
2023-11-07T11:54:12.404Z,1.30
2023-11-07T11:57:04.945Z,1.50
2023-11-07T11:59:54.805Z,1.33
2023-11-07T12:02:38.215Z,1.10
2023-11-07T12:05:18.288Z,0.90
2023-11-07T12:07:47.750Z,1.00
2023-11-07T12:10:18.327Z,1.90
2023-11-07T12:12:58.643Z,1.10
2023-11-07T12:15:30.778Z,1.50
2023-11-07T12:18:03.297Z,1.10
2023-11-07T12:20:33.034Z,2.77
2023-11-07T12:23:01.288Z,1.20
2023-11-07T12:25:29.646Z,1.70
2023-11-07T12:28:05.042Z,1.70
2023-11-07T12:30:33.950Z,1.50
2023-11-07T12:33:05.033Z,1.47
2023-11-07T12:35:34.056Z,1.50
2023-11-07T12:38:04.807Z,1.40
2023-11-07T12:40:34.772Z,1.40
2023-11-07T12:43:05.064Z,1.33
2023-11-07T12:45:33.409Z,1.60
2023-11-07T12:48:05.176Z,1.70
2023-11-07T12:50:34.821Z,1.23
2023-11-07T12:53:06.257Z,1.00
2023-11-07T12:55:37.022Z,1.10
2023-11-07T12:58:06.396Z,1.43
2023-11-07T13:00:55.943Z,1.30
2023-11-07T13:03:26.855Z,1.20
2023-11-07T13:05:59.088Z,2.97
2023-11-07T13:08:28.622Z,1.17
2023-11-07T13:11:10.509Z,1.30
2023-11-07T13:13:38.655Z,1.47
2023-11-07T13:16:08.390Z,3.23
2023-11-07T13:18:39.484Z,1.50
2023-11-07T13:21:09.644Z,0.90
2023-11-07T13:23:39.496Z,0.67
2023-11-07T13:26:09.653Z,1.47
2023-11-07T13:28:39.058Z,2.30
2023-11-07T13:31:07.489Z,1.00
2023-11-07T13:33:37.677Z,1.63
2023-11-07T13:36:07.214Z,0.70
2023-11-07T13:38:35.315Z,1.07
2023-11-07T13:41:03.897Z,0.67
2023-11-07T13:43:31.916Z,0.80
2023-11-07T13:46:00.275Z,1.63
2023-11-07T13:48:32.580Z,1.13
2023-11-07T13:51:02.745Z,1.40
2023-11-07T13:53:31.097Z,1.37
2023-11-07T13:56:00.396Z,1.27
2023-11-07T13:58:28.527Z,1.60
2023-11-07T14:00:57.870Z,1.10
2023-11-07T14:03:26.231Z,1.20
2023-11-07T14:05:55.002Z,1.17
2023-11-07T14:08:25.195Z,1.20
2023-11-07T14:10:54.145Z,1.40
2023-11-07T14:13:22.264Z,1.50
2023-11-07T14:15:51.469Z,1.30
2023-11-07T14:18:25.703Z,1.20
2023-11-07T14:20:59.248Z,1.27
2023-11-07T14:23:29.566Z,1.40
2023-11-07T14:25:59.318Z,1.23
2023-11-07T14:28:27.874Z,1.20
2023-11-07T14:30:58.891Z,1.10
2023-11-07T14:33:30.047Z,1.17
2023-11-07T14:36:00.196Z,1.60
2023-11-07T14:38:35.280Z,1.40
2023-11-07T14:41:06.006Z,1.90
2023-11-07T14:43:34.471Z,1.40
2023-11-07T14:46:06.450Z,1.80
2023-11-07T14:48:35.477Z,2.00
2023-11-07T14:51:03.783Z,1.60
2023-11-07T14:53:33.683Z,1.50
2023-11-07T14:56:01.646Z,1.33
2023-11-07T14:58:29.630Z,1.50
2023-11-07T15:00:58.425Z,2.17
2023-11-07T15:03:26.764Z,1.50
2023-11-07T15:05:59.321Z,1.40
2023-11-07T15:08:28.984Z,1.67
2023-11-07T15:11:00.904Z,1.50
2023-11-07T15:13:30.275Z,1.87
2023-11-07T15:16:00.822Z,2.17
2023-11-07T15:18:31.951Z,1.70
2023-11-07T15:21:00.273Z,1.77
2023-11-07T15:23:28.403Z,3.77
2023-11-07T15:25:57.840Z,2.90
2023-11-07T15:28:25.814Z,3.30
2023-11-07T15:30:53.793Z,2.20
2023-11-07T15:33:22.044Z,2.53
2023-11-07T15:35:50.170Z,4.37
2023-11-07T15:38:18.231Z,2.57
2023-11-07T15:40:46.294Z,2.87
2023-11-07T15:43:15.847Z,2.20
2023-11-07T15:45:44.150Z,2.20
2023-11-07T15:48:12.605Z,2.47
2023-11-07T15:50:42.487Z,2.00
2023-11-07T15:53:10.681Z,1.97
2023-11-07T15:55:40.357Z,1.90
2023-11-07T15:58:08.801Z,1.80
2023-11-07T16:00:38.446Z,1.90
2023-11-07T16:03:07.301Z,2.53
2023-11-07T16:05:37.145Z,2.87
2023-11-07T16:08:07.926Z,2.53
2023-11-07T16:10:36.914Z,2.97
2023-11-07T16:13:05.804Z,2.90
2023-11-07T16:15:35.008Z,2.60
2023-11-07T16:18:06.063Z,2.10
2023-11-07T16:20:34.405Z,2.17
2023-11-07T16:23:04.246Z,2.90
2023-11-07T16:25:32.977Z,2.47
2023-11-07T16:28:03.280Z,4.63
2023-11-07T16:30:33.726Z,4.90
2023-11-07T16:33:01.873Z,5.20
2023-11-07T16:35:31.451Z,12.30
2023-11-07T16:37:59.535Z,5.30
2023-11-07T16:40:27.610Z,3.23
2023-11-07T16:42:55.761Z,2.93
2023-11-07T16:45:24.354Z,2.43
2023-11-07T16:47:53.067Z,2.17
2023-11-07T16:50:22.204Z,2.80
2023-11-07T16:52:52.523Z,3.70
2023-11-07T16:55:20.823Z,2.33
2023-11-07T16:57:49.266Z,3.40
2023-11-07T17:00:20.203Z,3.00
2023-11-07T17:02:49.138Z,2.13
2023-11-07T17:05:17.861Z,2.80
2023-11-07T17:07:46.460Z,2.60
2023-11-07T17:10:16.626Z,2.97
2023-11-07T17:12:44.795Z,3.60
2023-11-07T17:15:13.782Z,2.90
2023-11-07T17:17:42.615Z,2.23
2023-11-07T17:20:13.493Z,3.00
2023-11-07T17:22:41.940Z,2.90
2023-11-07T17:25:10.993Z,3.03
2023-11-07T17:27:40.628Z,3.87
2023-11-07T17:30:09.858Z,3.80
2023-11-07T17:32:39.111Z,3.67
2023-11-07T17:35:08.513Z,3.60
2023-11-07T17:37:44.760Z,2.80
2023-11-07T17:40:13.549Z,2.77
2023-11-07T17:42:45.400Z,2.37
2023-11-07T17:45:14.511Z,1.70
2023-11-07T17:47:42.996Z,2.07
2023-11-07T17:50:11.847Z,2.20
2023-11-07T17:52:41.202Z,2.40
2023-11-07T17:55:10.070Z,1.40
2023-11-07T17:57:38.154Z,2.30
2023-11-07T18:00:09.254Z,2.40
2023-11-07T18:02:44.129Z,2.30
2023-11-07T18:05:14.479Z,2.53
2023-11-07T18:07:42.560Z,2.60
2023-11-07T18:10:11.376Z,2.40
2023-11-07T18:12:40.041Z,2.20
2023-11-07T18:15:10.418Z,2.40
2023-11-07T18:17:38.667Z,3.57
2023-11-07T18:20:10.449Z,2.80
2023-11-07T18:22:40.227Z,2.87
2023-11-07T18:25:09.764Z,3.40
2023-11-07T18:27:39.418Z,3.60
2023-11-07T18:30:10.417Z,2.30
2023-11-07T18:32:38.810Z,2.20
2023-11-07T18:35:07.462Z,2.10
2023-11-07T18:37:35.551Z,1.80
2023-11-07T18:40:04.001Z,1.30
2023-11-07T18:42:32.288Z,2.73
2023-11-07T18:45:01.162Z,1.60
2023-11-07T18:47:31.555Z,1.53
2023-11-07T18:50:02.721Z,1.50
2023-11-07T18:52:34.141Z,2.30
2023-11-07T18:55:02.503Z,2.70
2023-11-07T18:57:30.539Z,4.57
2023-11-07T18:59:58.785Z,3.40
2023-11-07T19:02:27.128Z,3.70
2023-11-07T19:04:56.753Z,6.20
2023-11-07T19:07:24.984Z,5.40
2023-11-07T19:09:53.262Z,3.30
2023-11-07T19:12:21.517Z,3.83
2023-11-07T19:14:49.509Z,3.00
2023-11-07T19:17:17.781Z,5.70
2023-11-07T19:19:45.924Z,3.70
2023-11-07T19:22:15.237Z,3.37
2023-11-07T19:24:43.570Z,2.90
2023-11-07T19:27:12.249Z,2.63
2023-11-07T19:29:40.785Z,2.03
2023-11-07T19:32:09.503Z,2.07
2023-11-07T19:34:37.621Z,2.90
2023-11-07T19:37:06.320Z,3.10
2023-11-07T19:39:36.524Z,2.57
2023-11-07T19:42:05.149Z,2.93
2023-11-07T19:44:35.843Z,3.03
2023-11-07T19:47:04.349Z,3.47
2023-11-07T19:49:32.822Z,2.83
2023-11-07T19:52:02.141Z,1.83
2023-11-07T19:54:30.486Z,2.23
2023-11-07T19:57:00.369Z,2.20
2023-11-07T19:59:28.680Z,1.77
2023-11-07T20:01:57.094Z,1.60
2023-11-07T20:04:25.687Z,1.83
2023-11-07T20:06:53.827Z,1.53
2023-11-07T20:09:22.968Z,2.80
2023-11-07T20:11:51.133Z,1.77
2023-11-07T20:14:20.838Z,2.17
2023-11-07T20:16:49.252Z,1.80
2023-11-07T20:19:17.400Z,1.90
2023-11-07T20:21:45.658Z,2.13
2023-11-07T20:24:14.558Z,3.00
2023-11-07T20:26:42.602Z,4.10
2023-11-07T20:29:10.636Z,2.27
2023-11-07T20:31:40.187Z,2.13
2023-11-07T20:34:08.969Z,2.27
2023-11-07T20:36:38.880Z,1.40
2023-11-07T20:39:09.556Z,2.13
2023-11-07T20:41:37.850Z,1.53
2023-11-07T20:44:07.388Z,1.50
2023-11-07T20:46:36.685Z,1.30
2023-11-07T20:49:07.393Z,1.33
2023-11-07T20:51:38.168Z,2.37
2023-11-07T20:54:10.378Z,1.70
2023-11-07T20:56:39.234Z,1.77
2023-11-07T20:59:07.417Z,1.80
2023-11-07T21:01:38.378Z,2.17
2023-11-07T21:04:08.582Z,1.97
2023-11-07T21:06:37.032Z,2.50
2023-11-07T21:09:09.449Z,1.20
2023-11-07T21:11:38.364Z,1.93
2023-11-07T21:14:17.476Z,1.77
2023-11-07T21:16:45.807Z,2.63
2023-11-07T21:19:15.665Z,3.70
2023-11-07T21:21:44.330Z,3.87
2023-11-07T21:24:12.732Z,2.47
2023-11-07T21:26:41.149Z,1.93
2023-11-07T21:29:09.436Z,1.50
2023-11-07T21:31:37.597Z,1.97
2023-11-07T21:34:07.812Z,1.53
2023-11-07T21:36:42.507Z,1.60
2023-11-07T21:39:13.232Z,2.40
2023-11-07T21:41:41.528Z,1.70
2023-11-07T21:44:10.240Z,1.50
2023-11-07T21:46:38.773Z,2.40
2023-11-07T21:49:06.929Z,2.17
2023-11-07T21:51:34.983Z,3.20
2023-11-07T21:54:05.895Z,1.53
2023-11-07T21:56:35.865Z,1.97
2023-11-07T21:59:04.486Z,1.60
2023-11-07T22:01:34.292Z,1.90
2023-11-07T22:04:02.369Z,3.50
2023-11-07T22:06:30.534Z,2.57
2023-11-07T22:08:59.347Z,2.07
2023-11-07T22:11:28.810Z,1.30
2023-11-07T22:13:57.082Z,2.13
2023-11-07T22:16:25.159Z,1.80
2023-11-07T22:18:53.353Z,1.97
2023-11-07T22:21:22.279Z,1.73
2023-11-07T22:23:50.450Z,1.47
2023-11-07T22:26:18.626Z,1.50
2023-11-07T22:28:48.434Z,1.40
2023-11-07T22:31:16.680Z,1.67
2023-11-07T22:33:45.031Z,1.30
2023-11-07T22:36:13.297Z,1.67
2023-11-07T22:38:41.489Z,1.70
2023-11-07T22:41:10.618Z,2.47
2023-11-07T22:43:39.321Z,2.00
2023-11-07T22:46:08.980Z,2.37
2023-11-07T22:48:38.033Z,2.33
2023-11-07T22:51:06.425Z,2.50
2023-11-07T22:53:34.784Z,1.97
2023-11-07T22:56:03.024Z,1.60
2023-11-07T22:58:31.213Z,1.67
2023-11-07T23:01:00.027Z,2.23
2023-11-07T23:03:29.539Z,2.00
2023-11-07T23:05:57.716Z,2.43
2023-11-07T23:08:25.927Z,2.60
2023-11-07T23:10:54.150Z,2.17
2023-11-07T23:13:22.401Z,2.40
2023-11-07T23:15:51.387Z,1.80
2023-11-07T23:18:19.698Z,1.97
2023-11-07T23:20:49.628Z,1.33
2023-11-07T23:23:17.784Z,1.57
2023-11-07T23:25:46.972Z,1.60
2023-11-07T23:28:15.329Z,1.50
2023-11-07T23:30:44.020Z,1.50
2023-11-07T23:33:12.967Z,1.20
2023-11-07T23:35:41.390Z,2.23
2023-11-07T23:38:11.230Z,2.27
2023-11-07T23:40:40.458Z,1.57
2023-11-07T23:43:08.652Z,1.90
2023-11-07T23:45:36.983Z,2.07
2023-11-07T23:48:05.854Z,2.80
2023-11-07T23:50:34.007Z,2.30
2023-11-07T23:53:02.408Z,2.47
2023-11-07T23:55:32.775Z,2.70
2023-11-07T23:58:01.326Z,1.87
